Time;durP1;ratioP1;P1;durP2;ratioP2;P2;SDS_P1;SDS_P2;PMS_P1;PMS_P2;Temp;Humidity;BMP_temperature;BMP_pressure;BME280_temperature;BME280_humidity;BME280_pressure;Samples;Min_cycle;Max_cycle;Signal;HPM_P1;HPM_P2
2021/03/11 00:00:45;;;;;;;61.72;10.43;;;11.70;99.90;;;;;;5010843;28;20053;-91
2021/03/11 00:03:23;;;;;;;63.75;8.15;;;11.70;99.90;;;;;;5007627;28;20475;-90
2021/03/11 00:05:50;;;;;;;62.47;8.55;;;11.70;99.90;;;;;;5008679;28;20046;-91
2021/03/11 00:08:16;;;;;;;71.10;9.25;;;11.70;99.90;;;;;;5013536;28;20057;-91
2021/03/11 00:10:43;;;;;;;71.15;9.27;;;11.70;99.90;;;;;;5009313;28;20038;-91
2021/03/11 00:13:10;;;;;;;68.00;9.43;;;11.70;99.90;;;;;;5005192;28;20049;-91
2021/03/11 00:15:39;;;;;;;75.95;9.68;;;11.70;99.90;;;;;;5011707;28;20054;-91
2021/03/11 00:18:06;;;;;;;57.30;8.40;;;11.70;99.90;;;;;;5011367;28;20053;-90
2021/03/11 00:20:34;;;;;;;58.75;9.07;;;11.70;99.90;;;;;;5012174;28;20045;-91
2021/03/11 00:23:01;;;;;;;65.65;8.52;;;11.70;99.90;;;;;;4999210;28;20053;-91
2021/03/11 00:25:30;;;;;;;55.25;7.80;;;11.70;99.90;;;;;;5009229;28;20351;-91
2021/03/11 00:27:57;;;;;;;61.15;8.30;;;11.70;99.90;;;;;;5009498;28;20045;-91
2021/03/11 00:30:24;;;;;;;49.08;7.70;;;11.70;99.90;;;;;;5012081;28;20038;-92
2021/03/11 00:32:51;;;;;;;53.85;8.00;;;11.70;99.90;;;;;;5010219;28;20489;-91
2021/03/11 00:35:18;;;;;;;55.00;9.30;;;11.70;99.90;;;;;;5010938;28;20056;-91
2021/03/11 00:37:47;;;;;;;52.97;7.45;;;11.70;99.90;;;;;;5009410;28;20519;-91
2021/03/11 00:40:17;;;;;;;50.33;7.65;;;11.70;99.90;;;;;;5010019;28;20053;-91
2021/03/11 00:42:43;;;;;;;56.40;8.65;;;11.70;99.90;;;;;;5010809;28;20042;-92
2021/03/11 00:45:10;;;;;;;63.25;8.60;;;11.70;99.90;;;;;;5009663;28;20144;-91
2021/03/11 00:47:39;;;;;;;50.42;7.25;;;11.70;99.90;;;;;;5011352;28;20054;-91
2021/03/11 00:50:12;;;;;;;58.20;8.25;;;11.70;99.90;;;;;;5012570;28;20451;-91
2021/03/11 00:52:39;;;;;;;63.45;8.07;;;11.70;99.90;;;;;;5022215;28;20062;-91
2021/03/11 00:55:08;;;;;;;65.75;8.50;;;11.80;99.90;;;;;;4994257;28;20049;-91
2021/03/11 00:57:34;;;;;;;42.25;7.70;;;11.70;99.90;;;;;;5009166;28;20050;-90
2021/03/11 01:00:00;;;;;;;53.00;8.85;;;11.70;99.90;;;;;;5010162;28;20108;-90
2021/03/11 01:02:27;;;;;;;56.80;8.38;;;11.70;99.90;;;;;;5010361;28;20088;-91
2021/03/11 01:04:54;;;;;;;55.85;7.43;;;11.70;99.90;;;;;;5009440;28;20065;-90
2021/03/11 01:07:21;;;;;;;48.58;7.18;;;11.70;99.90;;;;;;5009184;28;20038;-91
2021/03/11 01:09:47;;;;;;;45.75;7.30;;;11.70;99.90;;;;;;5010178;28;20049;-91
2021/03/11 01:12:15;;;;;;;54.90;6.90;;;11.70;99.90;;;;;;5009851;28;20043;-90
2021/03/11 01:14:44;;;;;;;65.22;7.85;;;11.70;99.90;;;;;;5010606;28;20097;-90
2021/03/11 01:17:11;;;;;;;60.25;7.88;;;11.70;99.90;;;;;;5012422;28;20061;-91
2021/03/11 01:19:38;;;;;;;62.08;8.00;;;11.70;99.90;;;;;;5010648;28;20042;-91
2021/03/11 01:22:04;;;;;;;56.33;7.50;;;11.70;99.90;;;;;;5008460;28;20045;-91
2021/03/11 01:24:32;;;;;;;58.95;8.40;;;11.70;99.90;;;;;;5009387;28;20475;-91
2021/03/11 01:26:58;;;;;;;54.95;7.30;;;11.70;99.90;;;;;;5009872;28;20411;-91
2021/03/11 01:29:25;;;;;;;53.75;8.85;;;11.70;99.90;;;;;;5013219;28;20053;-91
2021/03/11 01:31:51;;;;;;;64.95;7.68;;;11.70;99.90;;;;;;5009679;28;20231;-91
2021/03/11 01:34:18;;;;;;;56.78;7.80;;;11.70;99.90;;;;;;5007627;28;20435;-92
2021/03/11 01:36:45;;;;;;;59.72;7.97;;;11.70;99.90;;;;;;5009752;28;20045;-91
2021/03/11 01:39:11;;;;;;;53.58;8.07;;;11.70;99.90;;;;;;5003365;28;20065;-91
2021/03/11 01:41:38;;;;;;;58.72;8.73;;;11.70;99.90;;;;;;5012099;28;20141;-91
2021/03/11 01:44:05;;;;;;;54.72;7.05;;;11.70;99.90;;;;;;4999250;28;20049;-91
2021/03/11 01:46:31;;;;;;;50.47;7.85;;;11.70;99.90;;;;;;5009356;28;20049;-91
2021/03/11 01:48:59;;;;;;;40.92;6.43;;;11.70;99.90;;;;;;5009248;28;20042;-92
2021/03/11 01:51:28;;;;;;;50.50;7.80;;;11.70;99.90;;;;;;4993968;28;20046;-92
2021/03/11 01:53:55;;;;;;;46.83;6.88;;;11.70;99.90;;;;;;4988600;28;20046;-91
2021/03/11 01:56:22;;;;;;;37.13;6.70;;;11.70;99.90;;;;;;4983729;28;20468;-92
2021/03/11 01:58:48;;;;;;;33.80;6.25;;;11.70;99.90;;;;;;4990529;28;20045;-91
2021/03/11 02:01:15;;;;;;;46.00;6.95;;;11.70;99.90;;;;;;4989244;28;20431;-92
2021/03/11 02:03:41;;;;;;;43.88;7.53;;;11.80;99.90;;;;;;4987952;28;20088;-91
2021/03/11 02:06:08;;;;;;;42.38;6.50;;;11.80;99.90;;;;;;4980470;28;20050;-92
2021/03/11 02:08:39;;;;;;;36.95;6.35;;;11.70;99.90;;;;;;4988037;28;20052;-92
2021/03/11 02:11:11;;;;;;;29.15;4.95;;;11.70;99.90;;;;;;4977563;28;20042;-91
2021/03/11 02:13:52;;;;;;;36.05;5.13;;;11.50;99.90;;;;;;4989146;28;20057;-92
2021/03/11 02:16:28;;;;;;;33.90;5.18;;;11.40;99.90;;;;;;4979061;28;20043;-90
2021/03/11 02:19:10;;;;;;;26.83;4.18;;;11.20;99.90;;;;;;4989525;28;20473;-90
2021/03/11 02:21:41;;;;;;;23.05;4.00;;;11.00;99.90;;;;;;4987571;28;20046;-90
2021/03/11 02:24:11;;;;;;;26.67;4.65;;;10.80;99.90;;;;;;4972647;28;20038;-90
2021/03/11 02:26:56;;;;;;;32.75;4.30;;;10.60;99.90;;;;;;4987915;28;20051;-90
2021/03/11 02:29:28;;;;;;;29.08;4.35;;;10.40;99.90;;;;;;5003885;28;20046;-89
2021/03/11 02:31:58;;;;;;;35.40;4.35;;;10.30;99.90;;;;;;4986984;28;20050;-91
2021/03/11 02:34:32;;;;;;;34.97;5.40;;;10.30;99.90;;;;;;4983620;28;20042;-90
2021/03/11 02:37:04;;;;;;;33.83;4.68;;;10.30;99.90;;;;;;4973329;28;20122;-90
2021/03/11 02:39:32;;;;;;;39.35;5.57;;;10.40;99.90;;;;;;4988559;28;20073;-90
2021/03/11 02:41:59;;;;;;;34.97;5.53;;;10.40;99.90;;;;;;4973052;28;20050;-91
2021/03/11 02:44:27;;;;;;;42.90;6.53;;;10.50;99.90;;;;;;4995131;28;20051;-91
2021/03/11 02:46:54;;;;;;;36.17;5.43;;;10.50;99.90;;;;;;4989122;28;20050;-91
2021/03/11 02:49:22;;;;;;;49.83;6.85;;;10.50;99.90;;;;;;4988566;28;20177;-91
2021/03/11 02:51:53;;;;;;;50.42;7.47;;;10.60;99.90;;;;;;5029559;28;20065;-91
2021/03/11 02:54:21;;;;;;;52.25;7.57;;;10.70;99.90;;;;;;5011541;28;20099;-91
2021/03/11 02:56:59;;;;;;;;;;;10.70;99.90;;;;;;5016401;28;20072;-90
2021/03/11 02:59:28;;;;;;;52.03;8.20;;;10.80;99.90;;;;;;5014675;28;19971;-91
2021/03/11 03:01:55;;;;;;;;;;;10.80;99.90;;;;;;5010704;28;20369;-91
2021/03/11 03:04:24;;;;;;;61.05;8.23;;;10.80;99.90;;;;;;5010454;28;20404;-91
2021/03/11 03:06:51;;;;;;;66.03;8.35;;;10.80;99.90;;;;;;5012024;28;20053;-91
2021/03/11 03:09:19;;;;;;;53.33;9.20;;;10.80;99.90;;;;;;5011159;28;20095;-90
2021/03/11 03:11:47;;;;;;;59.72;9.30;;;10.80;99.90;;;;;;5013123;28;20057;-91
2021/03/11 03:14:14;;;;;;;50.42;8.40;;;10.80;99.90;;;;;;5013817;28;20085;-91
2021/03/11 03:16:41;;;;;;;52.47;8.07;;;10.90;99.90;;;;;;5009713;28;20479;-91
2021/03/11 03:19:11;;;;;;;53.63;7.75;;;10.90;99.90;;;;;;5018424;28;20127;-91
2021/03/11 03:21:42;;;;;;;52.97;7.53;;;10.90;99.90;;;;;;5011427;28;20060;-91
2021/03/11 03:24:15;;;;;;;63.22;9.73;;;10.90;99.90;;;;;;5009642;28;20095;-90
2021/03/11 03:26:41;;;;;;;56.35;8.75;;;10.90;99.90;;;;;;5039155;28;20045;-91
2021/03/11 03:29:08;;;;;;;65.28;9.60;;;10.90;99.90;;;;;;5011935;28;20083;-91
2021/03/11 03:31:35;;;;;;;58.42;8.30;;;11.00;99.90;;;;;;5008284;28;20053;-90
2021/03/11 03:34:02;;;;;;;65.65;9.95;;;10.90;99.90;;;;;;5010919;28;20041;-91
2021/03/11 03:36:29;;;;;;;56.30;8.90;;;11.00;99.90;;;;;;5011428;28;20049;-91
2021/03/11 03:38:56;;;;;;;56.53;7.80;;;11.00;99.90;;;;;;5010183;28;20536;-91
2021/03/11 03:41:26;;;;;;;57.45;9.77;;;11.00;99.90;;;;;;5018071;28;20080;-91
2021/03/11 03:43:53;;;;;;;54.47;8.65;;;11.00;99.90;;;;;;5010594;28;20053;-90
2021/03/11 03:46:23;;;;;;;58.05;8.68;;;11.00;99.90;;;;;;5009720;28;20080;-91
2021/03/11 03:48:53;;;;;;;54.20;8.88;;;11.00;99.90;;;;;;5011326;28;20128;-91
2021/03/11 03:51:28;;;;;;;63.28;9.60;;;11.00;99.90;;;;;;5010165;28;20049;-91
2021/03/11 03:54:05;;;;;;;66.93;10.10;;;11.00;99.90;;;;;;5009935;28;20081;-91
2021/03/11 03:56:35;;;;;;;65.10;10.73;;;11.00;99.90;;;;;;5010270;28;20049;-91
2021/03/11 03:59:20;;;;;;;68.72;10.40;;;11.00;99.90;;;;;;5012718;28;20048;-91
2021/03/11 04:01:53;;;;;;;76.05;10.50;;;11.00;99.90;;;;;;5009848;28;20360;-90
2021/03/11 04:04:21;;;;;;;69.30;11.30;;;11.00;99.90;;;;;;5012023;28;20041;-91
2021/03/11 04:06:48;;;;;;;72.30;10.32;;;11.00;99.90;;;;;;5026389;28;20463;-91
2021/03/11 04:09:15;;;;;;;61.60;10.60;;;11.00;99.90;;;;;;5001887;28;20057;-91
2021/03/11 04:11:44;;;;;;;74.07;11.75;;;11.00;99.90;;;;;;5011037;28;20104;-92
2021/03/11 04:14:12;;;;;;;74.45;10.52;;;11.10;99.90;;;;;;5010742;28;20046;-91
2021/03/11 04:16:42;;;;;;;83.30;12.15;;;11.00;99.90;;;;;;5010563;28;20037;-91
2021/03/11 04:19:10;;;;;;;74.65;11.05;;;11.00;99.90;;;;;;5012126;28;20041;-91
2021/03/11 04:21:37;;;;;;;78.90;11.77;;;11.00;99.90;;;;;;5005663;28;20139;-91
2021/03/11 04:24:05;;;;;;;69.00;12.07;;;10.90;99.90;;;;;;5010984;28;20049;-90
2021/03/11 04:26:32;;;;;;;67.30;10.77;;;10.90;99.90;;;;;;5009530;28;20467;-91
2021/03/11 04:29:00;;;;;;;73.50;13.65;;;10.90;99.90;;;;;;5028068;28;20469;-91
2021/03/11 04:31:27;;;;;;;84.32;13.35;;;10.90;99.90;;;;;;5010203;28;20057;-90
2021/03/11 04:33:55;;;;;;;85.45;11.95;;;10.90;99.90;;;;;;5010868;28;20095;-91
2021/03/11 04:36:22;;;;;;;87.33;11.67;;;10.90;99.90;;;;;;4998171;28;20042;-90
2021/03/11 04:38:49;;;;;;;90.85;14.40;;;10.90;99.90;;;;;;5022521;28;20054;-91
2021/03/11 04:41:16;;;;;;;82.38;12.45;;;10.80;99.90;;;;;;5011497;28;20041;-91
2021/03/11 04:43:43;;;;;;;82.35;13.23;;;10.80;99.90;;;;;;5014677;28;20041;-91
2021/03/11 04:46:11;;;;;;;84.18;13.40;;;10.80;99.90;;;;;;5013105;28;20605;-91
2021/03/11 04:48:38;;;;;;;82.50;12.80;;;10.70;99.90;;;;;;5014584;28;20072;-91
2021/03/11 04:51:07;;;;;;;96.93;13.95;;;10.70;99.90;;;;;;5009197;28;20073;-91
2021/03/11 04:53:33;;;;;;;62.97;11.32;;;10.70;99.90;;;;;;5024295;28;20364;-91
2021/03/11 04:56:01;;;;;;;80.88;13.05;;;10.70;99.90;;;;;;5013398;28;20049;-91
2021/03/11 04:58:31;;;;;;;84.53;12.60;;;10.60;99.90;;;;;;5009955;28;20096;-91
2021/03/11 05:01:01;;;;;;;71.13;11.27;;;10.60;99.90;;;;;;5009405;28;20676;-91
2021/03/11 05:03:28;;;;;;;79.80;12.50;;;10.60;99.90;;;;;;5008839;28;20057;-91
2021/03/11 05:05:54;;;;;;;74.15;10.52;;;10.60;99.90;;;;;;5011946;28;20122;-92
2021/03/11 05:08:24;;;;;;;60.70;9.85;;;10.70;99.90;;;;;;5014737;28;20054;-91
2021/03/11 05:10:51;;;;;;;62.17;10.48;;;10.60;99.90;;;;;;5009901;28;20049;-91
2021/03/11 05:13:18;;;;;;;72.00;12.10;;;10.70;99.90;;;;;;5004592;28;20398;-91
2021/03/11 05:15:44;;;;;;;60.17;9.43;;;10.70;99.90;;;;;;5009879;28;20049;-90
2021/03/11 05:18:11;;;;;;;59.58;9.93;;;10.70;99.90;;;;;;5009000;28;20050;-91
2021/03/11 05:20:37;;;;;;;56.33;9.20;;;10.70;99.90;;;;;;5010241;28;20561;-91
2021/03/11 05:23:05;;;;;;;40.40;8.27;;;10.70;99.90;;;;;;5011757;28;20057;-91
2021/03/11 05:25:32;;;;;;;51.45;8.27;;;10.70;99.90;;;;;;5008083;28;20046;-91
2021/03/11 05:27:59;;;;;;;43.70;7.55;;;10.60;99.90;;;;;;5011126;28;20058;-90
2021/03/11 05:30:26;;;;;;;39.83;7.47;;;10.60;99.90;;;;;;5000172;28;20042;-92
2021/03/11 05:32:52;;;;;;;36.22;7.15;;;10.60;99.90;;;;;;5012235;28;20112;-91
2021/03/11 05:35:19;;;;;;;50.78;8.30;;;10.60;99.90;;;;;;5029195;28;20054;-91
2021/03/11 05:37:45;;;;;;;62.83;10.18;;;10.50;99.90;;;;;;5010158;28;20046;-91
2021/03/11 05:40:12;;;;;;;50.40;8.65;;;10.50;99.90;;;;;;5010644;28;20058;-91
2021/03/11 05:42:43;;;;;;;54.97;10.93;;;10.50;99.90;;;;;;5009941;28;20408;-91
2021/03/11 05:45:10;;;;;;;58.25;9.30;;;10.40;99.90;;;;;;4996763;28;20066;-91
2021/03/11 05:47:38;;;;;;;55.80;9.52;;;10.40;99.90;;;;;;5010257;28;20046;-91
2021/03/11 05:50:07;;;;;;;66.93;10.45;;;10.30;99.90;;;;;;5007785;28;20053;-92
2021/03/11 05:52:35;;;;;;;48.47;8.07;;;10.30;99.90;;;;;;4995971;28;20065;-91
2021/03/11 05:55:04;;;;;;;53.47;9.37;;;10.20;99.90;;;;;;4989755;28;20046;-92
2021/03/11 05:57:44;;;;;;;56.20;8.27;;;10.20;99.90;;;;;;4992424;28;20054;-91
2021/03/11 06:00:13;;;;;;;58.05;8.68;;;10.20;99.90;;;;;;4983284;28;20395;-90
2021/03/11 06:02:43;;;;;;;47.05;8.27;;;10.20;99.90;;;;;;4991153;28;20141;-90
2021/03/11 06:05:15;;;;;;;47.00;8.57;;;10.10;99.90;;;;;;4995635;28;20057;-91
2021/03/11 06:07:44;;;;;;;50.45;7.93;;;10.10;99.90;;;;;;4985090;28;20123;-91
2021/03/11 06:10:12;;;;;;;43.72;6.82;;;10.10;99.90;;;;;;4983705;28;20042;-91
2021/03/11 06:12:39;;;;;;;40.80;8.30;;;10.10;99.90;;;;;;4988318;28;20054;-91
2021/03/11 06:15:32;;;;;;;44.65;7.63;;;10.10;99.90;;;;;;4997895;28;20101;-91
2021/03/11 06:18:19;;;;;;;46.47;7.22;;;10.10;99.90;;;;;;4989039;28;20462;-93
2021/03/11 06:21:19;;;;;;;51.80;8.10;;;10.10;99.90;;;;;;4989035;28;20088;-96
2021/03/11 06:24:02;;;;;;;48.00;8.18;;;10.10;99.90;;;;;;4995753;28;20066;-94
2021/03/11 06:26:29;;;;;;;56.78;9.00;;;10.10;99.90;;;;;;4988646;28;20046;-92
2021/03/11 06:28:55;;;;;;;60.38;9.32;;;10.10;99.90;;;;;;5004908;28;20051;-93
2021/03/11 06:31:27;;;;;;;50.25;9.88;;;10.10;99.90;;;;;;4979707;28;20487;-92
2021/03/11 06:33:56;;;;;;;66.60;9.95;;;10.10;99.90;;;;;;4993386;28;20096;-92
2021/03/11 06:36:25;;;;;;;56.25;8.93;;;10.10;99.90;;;;;;4987286;28;20395;-92
2021/03/11 06:38:58;;;;;;;67.22;10.38;;;10.20;99.90;;;;;;4990686;28;20140;-93
2021/03/11 06:41:43;;;;;;;61.83;10.02;;;10.20;99.90;;;;;;4989710;28;20046;-93
2021/03/11 06:44:09;;;;;;;59.15;9.55;;;10.20;99.90;;;;;;4990439;28;20139;-93
2021/03/11 06:46:36;;;;;;;66.22;10.30;;;10.30;99.90;;;;;;4993314;28;20047;-94
2021/03/11 06:49:14;;;;;;;64.20;9.45;;;10.30;99.90;;;;;;4982083;28;20046;-94
2021/03/11 06:51:42;;;;;;;59.67;9.18;;;10.30;99.90;;;;;;5008396;28;20475;-93
2021/03/11 06:54:10;;;;;;;60.78;10.07;;;10.30;99.90;;;;;;5027516;28;20053;-94
2021/03/11 06:56:41;;;;;;;63.17;10.30;;;10.30;99.90;;;;;;5036727;28;20057;-93
2021/03/11 06:59:08;;;;;;;56.03;8.50;;;10.30;99.90;;;;;;5010985;28;20045;-93
2021/03/11 07:01:47;;;;;;;64.30;9.70;;;10.40;99.90;;;;;;5009559;28;20040;-92
2021/03/11 07:04:22;;;;;;;62.53;9.80;;;10.40;99.90;;;;;;5005175;28;20096;-92
2021/03/11 07:06:49;;;;;;;53.85;9.25;;;10.40;99.90;;;;;;5007519;28;20057;-91
2021/03/11 07:09:16;;;;;;;57.78;8.13;;;10.40;99.90;;;;;;4994790;28;20046;-91
2021/03/11 07:12:17;;;;;;;49.30;7.55;;;10.40;99.90;;;;;;4996776;28;20104;-96
2021/03/11 07:14:48;;;;;;;50.75;8.68;;;10.40;99.90;;;;;;5005936;28;20046;-94
2021/03/11 07:17:23;;;;;;;50.60;8.90;;;10.30;99.90;;;;;;5011779;28;20490;-93
2021/03/11 07:20:10;;;;;;;47.72;8.73;;;10.40;99.90;;;;;;5021364;28;20034;-94
2021/03/11 07:22:39;;;;;;;53.45;8.00;;;10.40;99.90;;;;;;5007765;28;20105;-94
2021/03/11 07:25:27;;;;;;;48.25;7.45;;;10.50;99.90;;;;;;5006474;28;20042;-96
2021/03/11 07:27:57;;;;;;;54.45;8.57;;;10.50;99.90;;;;;;5000702;28;20049;-94
2021/03/11 07:30:25;;;;;;;44.85;7.38;;;10.50;99.90;;;;;;5007070;28;20505;-93
2021/03/11 07:32:58;;;;;;;40.92;7.43;;;10.50;99.90;;;;;;5010025;28;20053;-92
2021/03/11 07:35:31;;;;;;;42.50;7.65;;;10.50;99.90;;;;;;5010735;28;20454;-93
2021/03/11 07:38:01;;;;;;;49.83;9.23;;;10.50;99.90;;;;;;5008876;28;20053;-93
2021/03/11 07:40:32;;;;;;;42.75;7.30;;;10.60;99.90;;;;;;5009738;28;20100;-93
2021/03/11 07:43:03;;;;;;;45.13;7.40;;;10.60;99.90;;;;;;5010657;28;20048;-94
2021/03/11 07:45:30;;;;;;;50.85;9.02;;;10.60;99.90;;;;;;5009389;28;20061;-93
2021/03/11 07:47:57;;;;;;;52.63;9.18;;;10.60;99.90;;;;;;4996558;28;20069;-91
2021/03/11 07:50:24;;;;;;;36.65;6.13;;;10.60;99.90;;;;;;4999171;28;20056;-92
2021/03/11 07:52:51;;;;;;;35.67;6.38;;;10.70;99.90;;;;;;5007940;28;20042;-93
2021/03/11 07:55:18;;;;;;;43.33;5.88;;;10.70;99.90;;;;;;5009941;28;20045;-93
2021/03/11 07:57:48;;;;;;;43.85;7.07;;;10.70;99.90;;;;;;5006469;28;20050;-92
2021/03/11 08:00:17;;;;;;;29.02;4.90;;;10.70;99.90;;;;;;5000478;28;20078;-92
2021/03/11 08:02:50;;;;;;;36.70;6.30;;;10.80;99.90;;;;;;5007054;28;20045;-91
2021/03/11 08:05:25;;;;;;;34.92;5.03;;;10.80;99.90;;;;;;4994959;28;20336;-92
2021/03/11 08:08:22;;;;;;;32.63;5.07;;;10.80;99.90;;;;;;5006214;28;20069;-92
2021/03/11 08:11:00;;;;;;;38.00;6.28;;;10.80;99.90;;;;;;5005159;28;20246;-92
2021/03/11 08:13:38;;;;;;;38.70;5.43;;;10.90;99.90;;;;;;5005195;28;20364;-91
2021/03/11 08:16:17;;;;;;;29.33;5.55;;;10.90;99.90;;;;;;4993426;28;20042;-94
2021/03/11 08:18:45;;;;;;;;;;;10.90;99.90;;;;;;5026324;28;20453;-93
2021/03/11 08:21:23;;;;;;;40.25;5.68;;;10.90;99.90;;;;;;5027100;28;20016;-92
2021/03/11 08:23:51;;;;;;;31.30;5.13;;;11.00;99.90;;;;;;5028366;28;20054;-92
2021/03/11 08:26:43;;;;;;;39.83;5.00;;;11.00;99.90;;;;;;5012071;28;20109;-92
2021/03/11 08:29:29;;;;;;;33.60;6.05;;;11.00;99.90;;;;;;5038926;28;20087;-92
2021/03/11 08:31:56;;;;;;;36.05;6.00;;;11.10;99.90;;;;;;5034888;28;20100;-92
2021/03/11 08:34:38;;;;;;;31.17;5.32;;;11.20;99.90;;;;;;5001414;28;20438;-92
2021/03/11 08:37:20;;;;;;;30.77;5.82;;;11.20;99.90;;;;;;5018032;28;20065;-92
2021/03/11 08:39:48;;;;;;;31.77;5.95;;;11.30;99.90;;;;;;5008759;28;20038;-92
2021/03/11 08:42:49;;;;;;;38.40;5.50;;;11.40;99.90;;;;;;5010283;28;20050;-92
2021/03/11 08:45:37;;;;;;;38.53;6.22;;;11.50;99.90;;;;;;5009476;28;20117;-91
2021/03/11 08:48:12;;;;;;;39.90;5.22;;;11.60;99.90;;;;;;5028051;28;20060;-90
2021/03/11 08:50:45;;;;;;;31.83;5.30;;;11.60;99.90;;;;;;5008622;28;20144;-92
2021/03/11 08:53:12;;;;;;;24.83;4.20;;;11.40;99.90;;;;;;5008433;28;20042;-92
2021/03/11 08:55:39;;;;;;;23.70;4.60;;;11.20;99.90;;;;;;5008996;28;20057;-91
2021/03/11 08:58:26;;;;;;;18.10;3.67;;;10.90;99.90;;;;;;5010607;28;20053;-92
2021/03/11 09:01:00;;;;;;;21.63;4.07;;;10.80;99.90;;;;;;5000726;28;20050;-92
2021/03/11 09:03:56;;;;;;;17.58;3.40;;;10.70;99.90;;;;;;5026486;28;20053;-92
2021/03/11 09:06:52;;;;;;;20.65;3.30;;;10.70;99.90;;;;;;4988189;28;21241;-92
2021/03/11 09:09:37;;;;;;;23.70;3.85;;;10.60;99.90;;;;;;5008083;28;20039;-92
2021/03/11 09:12:12;;;;;;;25.60;4.80;;;10.60;99.90;;;;;;5009940;28;20054;-93
2021/03/11 09:14:41;;;;;;;33.92;4.60;;;10.70;99.90;;;;;;5024374;28;20045;-93
2021/03/11 09:17:14;;;;;;;;;;;10.60;99.90;;;;;;5011218;28;20061;-92
2021/03/11 09:19:46;;;;;;;25.45;4.70;;;10.60;99.90;;;;;;5010980;28;19954;-94
2021/03/11 09:22:27;;;;;;;32.22;5.25;;;10.50;99.90;;;;;;5004514;28;20037;-91
2021/03/11 09:25:03;;;;;;;30.73;5.03;;;10.50;99.90;;;;;;4998972;28;20477;-91
2021/03/11 09:27:31;;;;;;;36.20;6.40;;;10.60;99.90;;;;;;4991797;28;20078;-92
2021/03/11 09:30:22;;;;;;;35.15;5.05;;;10.60;99.90;;;;;;5007971;28;20138;-91
2021/03/11 09:32:49;;;;;;;27.13;5.30;;;10.60;99.90;;;;;;5010157;28;20353;-91
2021/03/11 09:35:16;;;;;;;36.60;5.30;;;10.50;99.90;;;;;;5012807;28;20081;-92
2021/03/11 09:37:51;;;;;;;31.63;5.65;;;10.60;99.90;;;;;;5008624;28;20055;-91
2021/03/11 09:40:33;;;;;;;31.05;5.32;;;10.70;99.90;;;;;;5017837;28;20415;-91
2021/03/11 09:43:06;;;;;;;35.22;5.43;;;10.80;99.90;;;;;;5008444;28;20101;-92
2021/03/11 09:45:40;;;;;;;40.70;5.57;;;10.90;99.90;;;;;;5018755;28;20038;-92
2021/03/11 09:48:32;;;;;;;34.58;5.75;;;11.10;99.90;;;;;;5015485;28;20482;-92
2021/03/11 09:51:08;;;;;;;36.63;6.85;;;11.20;99.90;;;;;;5010048;28;20046;-92
2021/03/11 09:53:53;;;;;;;39.20;6.35;;;11.30;99.90;;;;;;5028120;28;20514;-92
2021/03/11 09:56:38;;;;;;;36.03;6.70;;;11.30;99.90;;;;;;5015164;28;20053;-92
2021/03/11 09:59:07;;;;;;;42.00;6.95;;;11.40;99.90;;;;;;5011970;28;20188;-92
2021/03/11 10:01:35;;;;;;;37.75;7.03;;;11.40;99.90;;;;;;5008899;28;20050;-92
2021/03/11 10:04:23;;;;;;;44.63;7.45;;;11.50;99.90;;;;;;5007969;28;20049;-92
2021/03/11 10:07:02;;;;;;;40.92;7.93;;;11.50;99.90;;;;;;4996778;28;20484;-93
2021/03/11 10:09:40;;;;;;;43.17;7.93;;;11.60;99.90;;;;;;4996625;28;20045;-92
2021/03/11 10:12:08;;;;;;;42.63;6.53;;;11.60;99.90;;;;;;5003030;28;20046;-92
2021/03/11 10:14:34;;;;;;;36.35;6.65;;;11.60;99.90;;;;;;5010068;28;20096;-92
2021/03/11 10:17:04;;;;;;;38.50;6.40;;;11.60;99.90;;;;;;5011401;28;20049;-92
2021/03/11 10:19:33;;;;;;;40.00;7.00;;;11.70;99.90;;;;;;5010791;28;20436;-93
2021/03/11 10:22:10;;;;;;;34.38;5.70;;;11.70;99.90;;;;;;5008721;28;20145;-93
2021/03/11 10:24:43;;;;;;;32.60;6.65;;;11.80;99.90;;;;;;5004977;28;20134;-92
2021/03/11 10:27:33;;;;;;;40.17;6.82;;;11.90;99.90;;;;;;5006970;28;20057;-93
2021/03/11 10:30:05;;;;;;;29.27;5.68;;;12.00;99.90;;;;;;5006625;28;20065;-92
2021/03/11 10:32:32;;;;;;;29.70;5.60;;;11.90;99.90;;;;;;5016346;28;20392;-92
2021/03/11 10:35:00;;;;;;;30.77;4.88;;;12.00;99.90;;;;;;5008399;28;20482;-92
2021/03/11 10:37:35;;;;;;;30.45;5.57;;;12.10;99.90;;;;;;5009242;28;20060;-92
2021/03/11 10:40:10;;;;;;;26.38;4.80;;;12.20;99.90;;;;;;5006243;28;20126;-92
2021/03/11 10:42:54;;;;;;;33.33;6.35;;;12.30;99.90;;;;;;5008506;28;20049;-92
2021/03/11 10:45:23;;;;;;;25.23;4.30;;;12.10;99.90;;;;;;5008055;28;20137;-92
2021/03/11 10:48:04;;;;;;;19.45;4.28;;;11.60;99.90;;;;;;5004751;28;20070;-92
2021/03/11 10:50:39;;;;;;;17.60;3.20;;;11.30;99.90;;;;;;4997977;28;20080;-92
2021/03/11 10:53:06;;;;;;;12.10;2.90;;;11.10;99.90;;;;;;4990941;28;20073;-92
2021/03/11 10:55:38;;;;;;;13.30;3.00;;;10.90;99.90;;;;;;4985589;28;20054;-92
2021/03/11 10:58:06;;;;;;;11.75;2.15;;;10.80;99.90;;;;;;4980889;28;20046;-92
2021/03/11 11:00:36;;;;;;;12.75;2.05;;;10.80;99.90;;;;;;4996154;28;20057;-91
2021/03/11 11:03:05;;;;;;;12.70;2.50;;;10.80;99.90;;;;;;4990647;28;20057;-91
2021/03/11 11:05:32;;;;;;;16.08;3.03;;;10.90;99.90;;;;;;4999323;28;20464;-93
2021/03/11 11:08:01;;;;;;;17.38;3.08;;;10.90;99.90;;;;;;4984993;28;20054;-92
2021/03/11 11:10:34;;;;;;;19.00;3.10;;;11.00;99.90;;;;;;4985558;28;20073;-92
2021/03/11 11:13:01;;;;;;;19.58;3.10;;;11.00;99.90;;;;;;4988425;28;20054;-93
2021/03/11 11:15:31;;;;;;;21.00;3.92;;;11.10;99.90;;;;;;4988596;28;20065;-95
2021/03/11 11:17:58;;;;;;;16.55;3.30;;;11.10;99.90;;;;;;4974184;28;20046;-91
2021/03/11 11:20:26;;;;;;;24.63;4.28;;;11.20;99.90;;;;;;4990739;28;20046;-92
2021/03/11 11:22:53;;;;;;;16.63;3.95;;;11.30;99.90;;;;;;4987137;28;20034;-94
2021/03/11 11:25:19;;;;;;;24.30;3.78;;;11.40;99.90;;;;;;4983212;28;20046;-91
2021/03/11 11:27:46;;;;;;;31.08;4.75;;;11.40;99.90;;;;;;4987960;28;20046;-93
2021/03/11 11:30:14;;;;;;;26.63;4.55;;;11.50;99.90;;;;;;4982202;28;20042;-93
2021/03/11 11:32:42;;;;;;;25.13;4.57;;;11.60;99.90;;;;;;4985627;28;20559;-91
2021/03/11 11:35:09;;;;;;;23.38;4.32;;;11.70;99.90;;;;;;4984172;28;20133;-94
2021/03/11 11:37:36;;;;;;;23.08;4.72;;;11.80;99.90;;;;;;4986909;28;20105;-91
2021/03/11 11:40:04;;;;;;;26.80;4.85;;;11.80;99.90;;;;;;4978618;28;20039;-92
2021/03/11 11:42:30;;;;;;;34.88;5.47;;;11.90;99.90;;;;;;4987601;28;20061;-94
2021/03/11 11:44:57;;;;;;;27.27;4.53;;;11.90;99.90;;;;;;4973861;28;20061;-94
2021/03/11 11:47:23;;;;;;;22.88;4.47;;;12.10;99.90;;;;;;4989676;28;20395;-92
2021/03/11 11:49:50;;;;;;;24.50;4.40;;;12.10;99.90;;;;;;4990124;28;20057;-92
2021/03/11 11:52:17;;;;;;;22.77;4.75;;;12.10;99.90;;;;;;5009673;28;20042;-93
2021/03/11 11:54:44;;;;;;;22.73;4.35;;;12.20;99.90;;;;;;5005343;28;20100;-92
2021/03/11 11:57:10;;;;;;;27.73;4.30;;;12.20;99.90;;;;;;5011317;28;20049;-93
2021/03/11 11:59:37;;;;;;;26.77;4.65;;;12.10;99.90;;;;;;5005851;28;20081;-92
2021/03/11 12:02:12;;;;;;;26.52;4.20;;;12.10;99.90;;;;;;5004369;28;20046;-91
2021/03/11 12:04:40;;;;;;;31.25;5.18;;;12.10;99.90;;;;;;5008851;28;20088;-91
2021/03/11 12:07:07;;;;;;;19.63;4.30;;;12.00;99.90;;;;;;5011882;28;20068;-91
2021/03/11 12:09:37;;;;;;;22.20;4.75;;;11.90;99.90;;;;;;5010318;28;20045;-93
2021/03/11 12:12:04;;;;;;;25.13;4.47;;;11.80;99.90;;;;;;5024324;28;20057;-94
2021/03/11 12:14:32;;;;;;;26.83;4.13;;;11.90;99.90;;;;;;5009862;28;20057;-93
2021/03/11 12:17:00;;;;;;;31.05;4.75;;;11.90;99.90;;;;;;5015921;28;20053;-91
2021/03/11 12:19:27;;;;;;;32.67;4.53;;;12.00;99.90;;;;;;5016986;28;20324;-91
2021/03/11 12:21:53;;;;;;;30.00;4.93;;;12.20;99.90;;;;;;5013491;28;20057;-92
2021/03/11 12:24:20;;;;;;;32.45;5.30;;;12.30;99.90;;;;;;5008368;28;20053;-92
2021/03/11 12:26:48;;;;;;;28.77;5.00;;;12.40;99.90;;;;;;5011837;28;20042;-92
2021/03/11 12:29:17;;;;;;;31.83;5.90;;;12.40;99.90;;;;;;5010059;28;20046;-94
2021/03/11 12:31:48;;;;;;;32.97;5.70;;;12.50;99.90;;;;;;5007225;28;20132;-91
2021/03/11 12:34:16;;;;;;;26.52;5.00;;;12.50;99.90;;;;;;5008064;28;20048;-91
2021/03/11 12:36:43;;;;;;;29.65;5.40;;;12.60;99.90;;;;;;5009315;28;20056;-91
2021/03/11 12:39:10;;;;;;;25.33;4.72;;;12.70;99.90;;;;;;5007108;28;20058;-92
2021/03/11 12:41:37;;;;;;;28.13;5.22;;;12.70;99.90;;;;;;5008963;28;20049;-93
2021/03/11 12:44:05;;;;;;;5.97;1.27;;;12.70;99.90;;;;;;5012278;28;20053;-92
2021/03/11 12:46:32;;;;;;;6.10;0.73;;;11.80;99.90;;;;;;5006788;28;20528;-92
2021/03/11 12:49:00;;;;;;;4.30;0.70;;;11.00;99.90;;;;;;5010903;28;20057;-94
2021/03/11 12:51:27;;;;;;;3.97;0.98;;;10.30;99.90;;;;;;5010900;28;20045;-93
2021/03/11 12:53:53;;;;;;;5.05;1.00;;;9.70;99.90;;;;;;5011129;28;20494;-92
2021/03/11 12:56:22;;;;;;;6.10;1.27;;;9.30;99.90;;;;;;5012407;28;20042;-93